Time;durP1;ratioP1;P1;durP2;ratioP2;P2;SDS_P1;SDS_P2;PMS_P1;PMS_P2;Temp;Humidity;BMP_temperature;BMP_pressure;BME280_temperature;BME280_humidity;BME280_pressure;Samples;Min_cycle;Max_cycle;Signal;HPM_P1;HPM_P2
2020/12/01 00:02:23;;;;;;;92.00;37.30;;;2.20;99.90;;;;;;5095134;28;20474;-67
2020/12/01 00:04:48;;;;;;;93.50;37.88;;;2.10;99.90;;;;;;5094425;28;20454;-69
2020/12/01 00:07:14;;;;;;;92.78;37.67;;;1.90;99.90;;;;;;5094306;28;20054;-68
2020/12/01 00:09:40;;;;;;;93.55;37.97;;;1.90;99.90;;;;;;5094844;28;20450;-70
2020/12/01 00:12:05;;;;;;;92.30;37.42;;;2.00;99.90;;;;;;5084952;28;20039;-72
2020/12/01 00:14:31;;;;;;;92.47;37.55;;;2.00;99.90;;;;;;5087110;28;20035;-70
2020/12/01 00:16:57;;;;;;;91.97;37.47;;;2.00;99.90;;;;;;5094248;28;20462;-68
2020/12/01 00:19:23;;;;;;;92.70;37.72;;;2.00;99.90;;;;;;5093905;28;20032;-68
2020/12/01 00:21:50;;;;;;;91.88;37.35;;;2.00;99.90;;;;;;5093464;28;20024;-69
2020/12/01 00:24:16;;;;;;;92.35;37.45;;;2.00;99.90;;;;;;5093609;28;20058;-71
2020/12/01 00:26:43;;;;;;;92.40;37.35;;;2.00;99.90;;;;;;5094751;28;20056;-70
2020/12/01 00:29:09;;;;;;;92.05;37.33;;;2.00;99.90;;;;;;5093891;28;20020;-71
2020/12/01 00:31:42;;;;;;;92.00;37.45;;;1.90;99.90;;;;;;5092924;28;20038;-69
2020/12/01 00:34:12;;;;;;;92.68;37.67;;;1.80;99.90;;;;;;5093657;28;20489;-69
2020/12/01 00:36:40;;;;;;;92.35;37.60;;;1.70;99.90;;;;;;5093613;28;20050;-70
2020/12/01 00:39:07;;;;;;;93.25;37.92;;;1.80;99.90;;;;;;5106330;28;20058;-70
2020/12/01 00:41:33;;;;;;;94.03;37.83;;;1.80;99.90;;;;;;5075269;28;20432;-70
2020/12/01 00:43:59;;;;;;;93.68;37.75;;;1.80;99.90;;;;;;5092528;28;20043;-69
2020/12/01 00:46:26;;;;;;;92.90;37.47;;;1.80;99.90;;;;;;5074799;28;20032;-70
2020/12/01 00:48:51;;;;;;;93.28;37.67;;;1.70;99.90;;;;;;5093365;28;20027;-69
2020/12/01 00:51:17;;;;;;;90.80;36.83;;;1.60;99.90;;;;;;5092900;28;20519;-70
2020/12/01 00:53:43;;;;;;;92.63;37.40;;;1.70;99.90;;;;;;5092536;28;20021;-68
2020/12/01 00:56:09;;;;;;;94.30;37.88;;;1.80;99.90;;;;;;5093123;28;20476;-71
2020/12/01 00:58:35;;;;;;;94.18;37.72;;;1.80;99.90;;;;;;5092734;28;20477;-68
2020/12/01 01:01:00;;;;;;;93.45;37.58;;;1.70;99.90;;;;;;5092965;28;20379;-70
2020/12/01 01:03:26;;;;;;;93.38;37.60;;;1.60;99.90;;;;;;5092500;28;20036;-70
2020/12/01 01:05:52;;;;;;;93.72;37.58;;;1.50;99.90;;;;;;5092053;28;20020;-69
2020/12/01 01:08:17;;;;;;;93.25;37.55;;;1.50;99.90;;;;;;5107110;28;20035;-69
2020/12/01 01:10:44;;;;;;;94.18;37.67;;;1.50;99.90;;;;;;5092695;28;20111;-71
2020/12/01 01:13:11;;;;;;;92.82;37.83;;;1.40;99.90;;;;;;5091378;28;20024;-69
2020/12/01 01:15:37;;;;;;;93.40;37.95;;;1.40;99.90;;;;;;5092694;28;20028;-68
2020/12/01 01:18:03;;;;;;;93.10;37.95;;;1.40;99.90;;;;;;5092962;28;20046;-69
2020/12/01 01:20:29;;;;;;;93.30;38.03;;;1.30;99.90;;;;;;5091984;28;20035;-68
2020/12/01 01:22:56;;;;;;;92.22;37.67;;;1.30;99.90;;;;;;5092007;28;20020;-71
2020/12/01 01:25:22;;;;;;;93.35;37.95;;;1.40;99.90;;;;;;5092307;28;20028;-70
2020/12/01 01:27:48;;;;;;;94.00;38.25;;;1.40;99.90;;;;;;5092184;28;20480;-69
2020/12/01 01:30:16;;;;;;;92.97;37.85;;;1.40;99.90;;;;;;5092752;28;20027;-69
2020/12/01 01:32:42;;;;;;;94.00;37.83;;;1.40;99.90;;;;;;5092475;28;20073;-69
2020/12/01 01:35:08;;;;;;;94.03;37.88;;;1.50;99.90;;;;;;5092106;28;20028;-67
2020/12/01 01:37:34;;;;;;;93.97;37.75;;;1.50;99.90;;;;;;5093871;28;20432;-68
2020/12/01 01:40:00;;;;;;;95.05;38.15;;;1.60;99.90;;;;;;5088580;28;20469;-67
2020/12/01 01:42:25;;;;;;;93.90;37.70;;;1.60;99.90;;;;;;5092136;28;20051;-68
2020/12/01 01:44:51;;;;;;;91.88;37.15;;;1.50;99.90;;;;;;5092990;28;20035;-69
2020/12/01 01:47:25;;;;;;;93.03;37.53;;;1.50;99.90;;;;;;5093694;28;20111;-69
2020/12/01 01:49:53;;;;;;;;;;;1.40;99.90;;;;;;5093560;28;20025;-70
2020/12/01 01:52:27;;;;;;;93.22;37.97;;;1.40;99.90;;;;;;5093809;28;19908;-71
2020/12/01 01:54:59;;;;;;;94.03;38.00;;;1.40;99.90;;;;;;5094556;28;20081;-68
2020/12/01 01:57:26;;;;;;;93.65;37.92;;;1.40;99.90;;;;;;5093776;28;20506;-67
2020/12/01 01:59:52;;;;;;;93.25;37.88;;;1.40;99.90;;;;;;5092779;28;20420;-68
2020/12/01 02:02:18;;;;;;;92.78;37.92;;;1.30;99.90;;;;;;5091659;28;20028;-68
2020/12/01 02:04:44;;;;;;;93.80;37.97;;;1.30;99.90;;;;;;5093210;28;20027;-69
2020/12/01 02:07:10;;;;;;;94.40;38.40;;;1.30;99.90;;;;;;5093140;28;20048;-71
2020/12/01 02:09:45;;;;;;;95.28;38.10;;;1.10;99.90;;;;;;5092776;28;20377;-68
2020/12/01 02:12:14;;;;;;;94.35;37.60;;;1.20;99.90;;;;;;5093235;28;20799;-69
2020/12/01 02:15:15;;;;;;;94.55;37.72;;;1.10;99.90;;;;;;5093366;28;20462;-70
2020/12/01 02:17:43;;;;;;;94.18;37.95;;;1.10;99.90;;;;;;5031879;28;20033;-69
2020/12/01 02:20:17;;;;;;;94.68;38.17;;;1.10;99.90;;;;;;5030836;28;20804;-71
2020/12/01 02:22:48;;;;;;;93.32;37.85;;;1.00;99.90;;;;;;5030847;28;20036;-69
2020/12/01 02:25:16;;;;;;;94.60;38.10;;;1.00;99.90;;;;;;5034821;28;20116;-70
2020/12/01 02:27:47;;;;;;;94.40;38.08;;;1.10;99.90;;;;;;5034641;28;20543;-70
2020/12/01 02:30:12;;;;;;;94.35;38.08;;;1.20;99.90;;;;;;5034553;28;20066;-71
2020/12/01 02:32:38;;;;;;;93.85;37.85;;;1.10;99.90;;;;;;5034658;28;20084;-70
2020/12/01 02:35:09;;;;;;;92.85;37.65;;;1.10;99.90;;;;;;5034760;28;20448;-70
2020/12/01 02:37:37;;;;;;;91.15;37.20;;;1.20;99.90;;;;;;5034268;28;20033;-71
2020/12/01 02:40:07;;;;;;;91.47;37.17;;;1.20;99.90;;;;;;5034908;28;20025;-69
2020/12/01 02:42:33;;;;;;;92.72;37.45;;;1.20;99.90;;;;;;5034751;28;20080;-69
2020/12/01 02:44:59;;;;;;;93.00;37.70;;;1.20;99.90;;;;;;5034202;28;20062;-68
2020/12/01 02:47:26;;;;;;;93.72;38.05;;;1.20;99.90;;;;;;5034332;28;20116;-70
2020/12/01 02:49:51;;;;;;;93.88;38.13;;;1.10;99.90;;;;;;5034356;28;20037;-69
2020/12/01 02:52:20;;;;;;;91.50;37.35;;;1.10;99.90;;;;;;5075912;28;20107;-68
2020/12/01 02:54:46;;;;;;;93.05;37.78;;;1.10;99.90;;;;;;5096468;28;20027;-70
2020/12/01 02:57:12;;;;;;;93.55;38.13;;;1.00;99.90;;;;;;5096911;28;20366;-69
2020/12/01 02:59:38;;;;;;;94.07;38.22;;;1.10;99.90;;;;;;5079125;28;20024;-69
2020/12/01 03:02:04;;;;;;;93.57;38.10;;;1.00;99.90;;;;;;5097078;28;20032;-71
2020/12/01 03:04:29;;;;;;;91.38;37.28;;;1.00;99.90;;;;;;5078294;28;20032;-70
2020/12/01 03:06:55;;;;;;;92.65;38.00;;;1.00;99.90;;;;;;5096488;28;20073;-68
2020/12/01 03:09:21;;;;;;;92.97;38.10;;;1.00;99.90;;;;;;5078299;28;20066;-69
2020/12/01 03:11:48;;;;;;;91.97;37.92;;;1.00;99.90;;;;;;5096265;28;20024;-68
2020/12/01 03:14:14;;;;;;;92.85;37.95;;;1.00;99.90;;;;;;5096336;28;20023;-69
2020/12/01 03:16:40;;;;;;;93.38;38.33;;;1.00;99.90;;;;;;5096627;28;20027;-70
2020/12/01 03:19:06;;;;;;;94.10;38.13;;;1.00;99.90;;;;;;5096108;28;20032;-69
2020/12/01 03:21:32;;;;;;;91.60;37.40;;;1.00;99.90;;;;;;5078291;28;20480;-70
2020/12/01 03:23:58;;;;;;;92.22;37.58;;;1.00;99.90;;;;;;5096182;28;20028;-69
2020/12/01 03:26:23;;;;;;;91.63;37.38;;;1.00;99.90;;;;;;5077723;28;20024;-68
2020/12/01 03:28:49;;;;;;;94.03;37.97;;;1.00;99.90;;;;;;5096101;28;20035;-69
2020/12/01 03:31:18;;;;;;;91.90;37.38;;;0.90;99.90;;;;;;5096106;28;20095;-72
2020/12/01 03:33:45;;;;;;;92.25;37.72;;;0.90;99.90;;;;;;5095938;28;20024;-70
2020/12/01 03:36:11;;;;;;;93.90;38.35;;;1.00;99.90;;;;;;5095225;28;20024;-68
2020/12/01 03:38:37;;;;;;;93.40;38.22;;;0.80;99.90;;;;;;5095888;28;20058;-69
2020/12/01 03:41:04;;;;;;;91.18;37.60;;;0.80;99.90;;;;;;5077875;28;20024;-70
2020/12/01 03:43:30;;;;;;;91.95;38.25;;;0.70;99.90;;;;;;5091623;28;20058;-70
2020/12/01 03:45:56;;;;;;;90.78;37.92;;;0.70;99.90;;;;;;5089844;28;20024;-67
2020/12/01 03:48:22;;;;;;;91.93;38.25;;;0.70;99.90;;;;;;5095077;28;20517;-70
2020/12/01 03:50:48;;;;;;;92.38;38.40;;;0.80;99.90;;;;;;5095849;28;20027;-69
2020/12/01 03:53:13;;;;;;;87.28;37.38;;;0.80;99.90;;;;;;5095392;28;20519;-70
2020/12/01 03:55:39;;;;;;;82.20;36.13;;;0.60;99.90;;;;;;5095468;28;20099;-71
2020/12/01 03:58:05;;;;;;;84.95;37.00;;;0.60;99.90;;;;;;5095535;28;20089;-68
2020/12/01 04:00:31;;;;;;;85.68;37.28;;;0.70;99.90;;;;;;5095617;28;20521;-70
2020/12/01 04:02:57;;;;;;;86.35;37.63;;;0.60;99.90;;;;;;5095216;28;20474;-70
2020/12/01 04:05:26;;;;;;;86.90;37.75;;;0.60;99.90;;;;;;5094957;28;20027;-70
2020/12/01 04:07:52;;;;;;;85.97;37.42;;;0.50;99.90;;;;;;5095288;28;20076;-69
2020/12/01 04:10:19;;;;;;;84.68;36.97;;;0.60;99.90;;;;;;5095461;28;20024;-69
2020/12/01 04:12:45;;;;;;;86.20;37.42;;;0.60;99.90;;;;;;5111008;28;20024;-71
2020/12/01 04:15:13;;;;;;;85.13;37.17;;;0.60;99.90;;;;;;5095499;28;20123;-69
2020/12/01 04:17:39;;;;;;;87.00;37.72;;;0.60;99.90;;;;;;5095222;28;20016;-70
2020/12/01 04:20:06;;;;;;;87.15;37.38;;;0.50;99.90;;;;;;5095634;28;20116;-69
2020/12/01 04:22:32;;;;;;;87.85;37.50;;;0.60;99.90;;;;;;5094810;28;20039;-70
2020/12/01 04:24:57;;;;;;;85.88;37.05;;;0.70;99.90;;;;;;5094982;28;20394;-70
2020/12/01 04:27:23;;;;;;;88.13;37.55;;;0.70;99.90;;;;;;5095019;28;20028;-71
2020/12/01 04:29:49;;;;;;;89.63;37.83;;;0.60;99.90;;;;;;5094769;28;20115;-69
2020/12/01 04:32:15;;;;;;;91.85;38.40;;;0.70;99.90;;;;;;5095431;28;20074;-69
2020/12/01 04:34:40;;;;;;;90.15;38.15;;;0.70;99.90;;;;;;5094655;28;20024;-69
2020/12/01 04:37:07;;;;;;;85.85;36.80;;;0.60;99.90;;;;;;5094348;28;20036;-69
2020/12/01 04:39:34;;;;;;;87.93;37.40;;;0.50;99.90;;;;;;5094620;28;20085;-70
2020/12/01 04:42:01;;;;;;;87.40;37.90;;;0.40;99.90;;;;;;5094946;28;20117;-70
2020/12/01 04:44:36;;;;;;;86.43;37.55;;;0.40;99.90;;;;;;5095709;28;20032;-72
2020/12/01 04:47:06;;;;;;;76.88;35.75;;;0.20;99.90;;;;;;5111112;28;20043;-73
2020/12/01 04:49:37;;;;;;;75.07;35.40;;;0.10;99.90;;;;;;5094234;28;20466;-69
2020/12/01 04:52:34;;;;;;;74.60;35.05;;;0.00;99.90;;;;;;5094926;28;20024;-71
2020/12/01 04:55:33;;;;;;;20.02;10.73;;;-0.20;99.90;;;;;;5110437;28;20020;-71
2020/12/01 04:58:22;;;;;;;;;;;-0.20;99.90;;;;;;5094267;28;20115;-69
2020/12/01 05:01:18;;;;;;;85.20;37.60;;;-0.30;99.90;;;;;;5076680;28;20411;-69
2020/12/01 05:04:15;;;;;;;5.22;3.05;;;-0.40;99.90;;;;;;5075193;28;20024;-70
2020/12/01 05:07:18;;;;;;;10.48;5.80;;;-0.30;99.90;;;;;;5093971;28;20048;-69
2020/12/01 05:09:45;;;;;;;;;;;-0.40;99.90;;;;;;5095144;28;20194;-69
2020/12/01 05:12:11;;;;;;;;;;;;;;;;;;5094021;28;20414;-69
2020/12/01 05:14:37;;;;;;;;;;;;;;;;;;5094441;28;19932;-69
2020/12/01 05:17:31;;;;;;;;;;;-0.90;99.90;;;;;;5094593;28;20319;-71
2020/12/01 05:19:57;;;;;;;;;;;-1.00;99.90;;;;;;5083200;28;19911;-69
2020/12/01 05:22:22;;;;;;;;;;;-1.10;99.90;;;;;;5094414;28;19907;-70
2020/12/01 05:24:49;;;;;;;;;;;-1.10;99.90;;;;;;5093974;28;19908;-70
2020/12/01 05:27:27;;;;;;;;;;;-1.10;99.90;;;;;;5094338;28;19904;-70
2020/12/01 05:29:53;;;;;;;;;;;-1.00;99.90;;;;;;5081122;28;19904;-71
2020/12/01 05:32:28;;;;;;;;;;;-0.90;99.90;;;;;;5094756;28;19973;-70
2020/12/01 05:34:54;;;;;;;;;;;-1.00;99.90;;;;;;5094765;28;19911;-71
2020/12/01 05:37:20;;;;;;;;;;;-1.00;99.90;;;;;;5094300;28;19912;-72
2020/12/01 05:39:45;;;;;;;;;;;-1.10;99.90;;;;;;5093822;28;20350;-69
2020/12/01 05:42:20;;;;;;;;;;;-1.00;99.90;;;;;;5076183;28;20246;-70
2020/12/01 05:44:56;;;;;;;;;;;-1.00;99.90;;;;;;5094124;28;19904;-70
2020/12/01 05:47:26;;;;;;;;;;;-1.10;99.90;;;;;;5093970;28;19961;-69
2020/12/01 05:50:06;;;;;;;;;;;-1.10;99.90;;;;;;5094759;28;19908;-69
2020/12/01 05:52:42;;;;;;;;;;;-1.20;99.90;;;;;;5093863;28;19915;-70
2020/12/01 05:55:10;;;;;;;;;;;-1.20;99.90;;;;;;5092248;28;19904;-69
2020/12/01 05:57:35;;;;;;;;;;;-1.00;99.90;;;;;;5092867;28;19965;-69
2020/12/01 06:00:06;;;;;;;;;;;-1.10;99.90;;;;;;5075505;28;19912;-69
2020/12/01 06:02:35;;;;;;;;;;;-1.10;99.90;;;;;;5076114;28;20285;-70
2020/12/01 06:05:01;;;;;;;;;;;-1.10;99.90;;;;;;5093588;28;19904;-70
2020/12/01 06:07:27;;;;;;;;;;;-1.20;99.90;;;;;;5093369;28;20387;-69
2020/12/01 06:09:58;;;;;;;;;;;-1.30;99.90;;;;;;5093755;28;19942;-68
2020/12/01 06:12:41;;;;;;;;;;;-1.30;99.90;;;;;;5093318;28;20057;-70
2020/12/01 06:15:15;;;;;;;;;;;-1.20;99.90;;;;;;5093197;28;19904;-69
2020/12/01 06:17:46;;;;;;;;;;;-1.20;99.90;;;;;;5093603;28;19908;-67
2020/12/01 06:20:20;;;;;;;;;;;-1.20;99.90;;;;;;5093956;28;19935;-69
2020/12/01 06:23:04;;;;;;;;;;;-1.10;99.90;;;;;;5093329;28;19904;-69
2020/12/01 06:25:40;;;;;;;;;;;-1.10;99.90;;;;;;5093770;28;19904;-71
2020/12/01 06:28:08;;;;;;;;;;;-1.00;99.90;;;;;;5093060;28;20254;-69
2020/12/01 06:30:34;;;;;;;;;;;-1.10;99.90;;;;;;5093680;28;20341;-69
2020/12/01 06:33:32;;;;;;;;;;;-1.20;99.90;;;;;;5093482;28;19911;-70
2020/12/01 06:36:01;;;;;;;;;;;-1.10;99.90;;;;;;5066138;28;19991;-68
2020/12/01 06:38:49;;;;;;;;;;;-1.00;99.90;;;;;;5093576;28;19908;-67
2020/12/01 06:41:16;;;;;;;;;;;-1.00;99.90;;;;;;5085499;28;20353;-69
2020/12/01 06:43:49;;;;;;;;;;;-0.80;99.90;;;;;;5093643;28;19970;-70
2020/12/01 06:46:30;;;;;;;;;;;-1.00;99.90;;;;;;5093460;28;19908;-71
2020/12/01 06:48:56;;;;;;;;;;;-0.80;99.90;;;;;;5093330;28;19914;-69
2020/12/01 06:51:22;;;;;;;;;;;-0.70;99.90;;;;;;5093619;28;19908;-70
2020/12/01 06:53:47;;;;;;;;;;;-0.80;99.90;;;;;;5093574;28;19939;-68
2020/12/01 06:56:16;;;;;;;;;;;0.30;99.90;;;;;;5093927;28;19904;-69
2020/12/01 06:58:43;;;;;;;;;;;-0.90;99.90;;;;;;5093287;28;19919;-69
2020/12/01 07:01:18;;;;;;;;;;;-1.10;99.90;;;;;;5093396;28;20409;-68
2020/12/01 07:03:46;;;;;;;;;;;-0.80;99.90;;;;;;5092708;28;20368;-69
2020/12/01 07:06:17;;;;;;;;;;;-0.80;99.90;;;;;;5093384;28;19945;-67
2020/12/01 07:08:43;;;;;;;;;;;-0.60;99.90;;;;;;5088666;28;20400;-70
2020/12/01 07:11:12;;;;;;;;;;;-0.70;99.90;;;;;;5088900;28;19908;-69
2020/12/01 07:13:54;;;;;;;;;;;-0.20;99.90;;;;;;5097112;28;19904;-68
2020/12/01 07:16:20;;;;;;;;;;;-0.30;99.90;;;;;;5076106;28;19969;-69
2020/12/01 07:18:47;;;;;;;;;;;-0.40;99.90;;;;;;5075301;28;20413;-69
2020/12/01 07:21:18;;;;;;;;;;;-0.30;99.90;;;;;;5096837;28;19950;-71
2020/12/01 07:23:52;;;;;;;;;;;-0.80;99.90;;;;;;5088197;28;19904;-70
2020/12/01 07:26:18;;;;;;;;;;;-0.20;99.90;;;;;;5096709;28;19911;-68
2020/12/01 07:28:49;;;;;;;;;;;-0.10;99.90;;;;;;5089617;28;20250;-69
2020/12/01 07:31:23;;;;;;;;;;;-0.10;99.90;;;;;;5094823;28;19911;-71
2020/12/01 07:33:50;;;;;;;;;;;-0.10;99.90;;;;;;5097987;28;20273;-69
2020/12/01 07:36:26;;;;;;;;;;;0.20;99.90;;;;;;5096529;28;19904;-70
2020/12/01 07:39:04;;;;;;;;;;;0.10;99.90;;;;;;5090548;28;19927;-70
2020/12/01 07:41:30;;;;;;;;;;;0.20;99.90;;;;;;5092452;28;20349;-70
2020/12/01 07:43:57;;;;;;;74.82;35.35;;;0.10;99.90;;;;;;5085702;28;20419;-70
2020/12/01 07:46:22;;;;;;;;;;;0.40;99.90;;;;;;5100916;28;20036;-71
2020/12/01 07:48:55;;;;;;;;;;;0.30;99.90;;;;;;5092616;28;19904;-69
2020/12/01 07:51:21;;;;;;;;;;;0.40;99.90;;;;;;5093105;28;19923;-70
2020/12/01 07:53:47;;;;;;;;;;;0.30;99.90;;;;;;5083642;28;19908;-68
2020/12/01 07:56:14;;;;;;;;;;;0.30;99.90;;;;;;5096569;28;19910;-70
2020/12/01 07:58:39;;;;;;;;;;;0.30;99.90;;;;;;5074517;28;20258;-70
2020/12/01 08:01:14;;;;;;;;;;;0.30;99.90;;;;;;5094623;28;19915;-70
2020/12/01 08:03:39;;;;;;;;;;;0.40;99.90;;;;;;5094615;28;19950;-68
2020/12/01 08:06:07;;;;;;;;;;;0.70;99.90;;;;;;5095297;28;20280;-70
2020/12/01 08:08:34;;;;;;;;;;;0.70;99.90;;;;;;5095327;28;20428;-69
2020/12/01 08:11:01;;;;;;;;;;;0.90;99.90;;;;;;5091486;28;19904;-69
2020/12/01 08:13:27;;;;;;;;;;;0.80;99.90;;;;;;5091089;28;20421;-68
2020/12/01 08:16:00;;;;;;;;;;;1.00;99.90;;;;;;5089551;28;19991;-71
2020/12/01 08:18:28;;;;;;;;;;;1.00;99.90;;;;;;5087020;28;19916;-68
2020/12/01 08:20:53;;;;;;;;;;;1.00;99.90;;;;;;5094773;28;19915;-69
2020/12/01 08:23:21;;;;;;;;;;;1.10;99.90;;;;;;5095277;28;19904;-69
2020/12/01 08:25:54;;;;;;;;;;;1.20;99.90;;;;;;5095003;28;19999;-70
2020/12/01 08:28:20;;;;;;;;;;;1.60;99.90;;;;;;5090804;28;19911;-70
2020/12/01 08:30:45;;;;;;;;;;;1.40;99.90;;;;;;5089168;28;19904;-69
2020/12/01 08:33:18;;;;;;;;;;;1.60;99.90;;;;;;5087314;28;19920;-71
2020/12/01 08:35:48;;;;;;;;;;;1.60;99.90;;;;;;5092633;28;19949;-69
2020/12/01 08:38:46;;;;;;;;;;;1.70;99.90;;;;;;5094876;28;19907;-69
2020/12/01 08:41:17;;;;;;;;;;;1.90;99.90;;;;;;5028108;28;19913;-69
2020/12/01 08:44:10;;;;;;;;;;;1.90;99.90;;;;;;5032606;28;19913;-70
2020/12/01 08:46:40;;;;;;;;;;;2.00;99.90;;;;;;5028855;28;19905;-71
2020/12/01 08:49:07;;;;;;;;;;;1.90;99.90;;;;;;5025203;28;19906;-68
2020/12/01 08:51:49;;;;;;;;;;;2.00;99.90;;;;;;5022788;28;19909;-69
2020/12/01 08:54:24;;;;;;;;;;;2.10;99.90;;;;;;5027685;28;20411;-72
2020/12/01 08:56:55;;;;;;;;;;;2.10;99.90;;;;;;5031927;28;20348;-70
2020/12/01 08:59:26;;;;;;;;;;;2.20;99.90;;;;;;5029265;28;20003;-69
2020/12/01 09:01:54;;;;;;;;;;;2.20;99.90;;;;;;5029054;28;19962;-69
2020/12/01 09:04:22;;;;;;;;;;;2.30;99.90;;;;;;5030794;28;19980;-69
2020/12/01 09:06:47;;;;;;;;;;;2.30;99.90;;;;;;5030062;28;19943;-72
2020/12/01 09:09:19;;;;;;;;;;;2.70;99.90;;;;;;5029965;28;19909;-70
2020/12/01 09:16:58;;;;;;;;;;;2.60;99.90;;;;;;5063918;28;20372;-68
2020/12/01 09:22:09;;;;;;;;;;;2.50;99.90;;;;;;5094591;28;20042;-68
2020/12/01 09:24:34;;;;;;;;;;;2.60;99.90;;;;;;5075727;28;19953;-72
2020/12/01 09:27:06;;;;;;;;;;;2.60;99.90;;;;;;5092958;28;19908;-70
2020/12/01 09:29:32;;;;;;;66.47;33.90;;;2.80;99.90;;;;;;5072870;28;20390;-70
2020/12/01 09:31:58;;;;;;;;;;;3.10;99.90;;;;;;5093593;28;20024;-71
2020/12/01 09:34:28;;;;;;;;;;;3.40;99.90;;;;;;5093753;28;19904;-69
2020/12/01 09:36:58;;;;;;;;;;;3.70;99.90;;;;;;5072606;28;19936;-69
2020/12/01 09:39:24;;;;;;;;;;;4.10;99.90;;;;;;5092677;28;20315;-70
2020/12/01 09:42:00;;;;;;;;;;;4.10;99.90;;;;;;5092160;28;19904;-69
2020/12/01 09:50:05;;;;;;;;;;;4.30;99.90;;;;;;5091344;28;19911;-71
2020/12/01 09:53:01;;;;;;;;;;;4.40;99.90;;;;;;5091147;28;19998;-70
2020/12/01 09:58:18;;;;;;;;;;;4.50;99.90;;;;;;5091713;28;19915;-69
2020/12/01 10:08:48;;;;;;;;;;;4.30;99.90;;;;;;5093338;28;19911;-70
2020/12/01 10:13:49;;;;;;;;;;;4.40;99.90;;;;;;5093206;28;20003;-70
2020/12/01 10:35:35;;;;;;;;;;;5.00;99.90;;;;;;5063290;28;20011;-73
2020/12/01 10:38:00;;;;;;;;;;;5.10;99.90;;;;;;5090900;28;19947;-69
2020/12/01 10:40:27;;;;;;;;;;;5.10;99.90;;;;;;5092824;28;19914;-71
2020/12/01 10:42:53;;;;;;;;;;;5.00;99.90;;;;;;5093708;28;19904;-69
2020/12/01 10:45:20;;;;;;;;;;;5.00;99.90;;;;;;5096380;28;19915;-68
2020/12/01 10:47:45;;;;;;;;;;;5.20;99.90;;;;;;5096894;28;19908;-70
2020/12/01 10:50:11;;;;;;;;;;;5.30;99.90;;;;;;5097028;28;19987;-71
2020/12/01 10:52:37;;;;;;;;;;;5.20;99.90;;;;;;5097110;28;19911;-70
2020/12/01 10:55:04;;;;;;;;;;;5.20;99.90;;;;;;5096905;28;19904;-70
2020/12/01 10:57:29;;;;;;;;;;;5.10;99.90;;;;;;5097080;28;20365;-74
2020/12/01 10:59:55;;;;;;;;;;;5.00;99.90;;;;;;5096819;28;19907;-72
2020/12/01 11:02:20;;;;;;;;;;;5.00;99.90;;;;;;5097149;28;20260;-71
2020/12/01 11:04:46;;;;;;;;;;;5.00;99.90;;;;;;5097909;28;19965;-72
2020/12/01 11:07:11;;;;;;;;;;;5.20;99.90;;;;;;5097497;28;20307;-74
2020/12/01 11:09:37;;;;;;;;;;;5.30;99.90;;;;;;5096775;28;19904;-72
2020/12/01 11:12:03;;;;;;;;;;;5.50;99.90;;;;;;5097059;28;19947;-71
2020/12/01 11:14:28;;;;;;;;;;;5.50;99.90;;;;;;5096162;28;19965;-71
2020/12/01 11:16:54;;;;;;;;;;;5.50;99.90;;;;;;5097115;28;19940;-72
2020/12/01 11:19:19;;;;;;;;;;;5.60;99.90;;;;;;5096400;28;19908;-70
2020/12/01 11:21:45;;;;;;;;;;;5.70;99.90;;;;;;5112178;28;19961;-73
2020/12/01 11:24:10;;;;;;;;;;;5.60;99.90;;;;;;5096344;28;19904;-70
2020/12/01 11:26:36;;;;;;;;;;;5.50;99.90;;;;;;5096284;28;19978;-70
2020/12/01 11:29:02;;;;;;;;;;;5.60;99.90;;;;;;5096345;28;19915;-70
2020/12/01 11:31:27;;;;;;;;;;;5.60;99.90;;;;;;5112160;28;20344;-70
2020/12/01 11:33:58;;;;;;;;;;;5.70;99.90;;;;;;5096326;28;20381;-71
2020/12/01 11:36:24;;;;;;;;;;;5.80;99.90;;;;;;5095761;28;19904;-72
2020/12/01 11:38:50;;;;;;;;;;;5.90;99.90;;;;;;5096379;28;20353;-72
2020/12/01 11:41:16;;;;;;;;;;;6.00;99.90;;;;;;5096087;28;20378;-71
2020/12/01 11:43:41;;;;;;;;;;;6.00;99.90;;;;;;5096044;28;19914;-72
2020/12/01 11:46:07;;;;;;;;;;;5.90;99.90;;;;;;5086364;28;19908;-70
2020/12/01 11:48:32;;;;;;;;;;;5.90;99.90;;;;;;5094705;28;20261;-70
2020/12/01 11:50:58;;;;;;;;;;;5.90;99.90;;;;;;5095409;28;19904;-69
2020/12/01 11:53:23;;;;;;;;;;;5.90;99.90;;;;;;5095232;28;19908;-69
2020/12/01 11:55:49;;;;;;;;;;;5.90;99.90;;;;;;5094977;28;19904;-70
2020/12/01 11:58:15;;;;;;;;;;;6.00;99.90;;;;;;5095789;28;20036;-71
2020/12/01 12:00:40;;;;;;;;;;;6.10;99.90;;;;;;5088051;28;19954;-71
2020/12/01 12:03:06;;;;;;;;;;;6.10;99.90;;;;;;5089689;28;19961;-70
2020/12/01 12:05:31;;;;;;;;;;;6.50;99.90;;;;;;5095141;28;20368;-69
2020/12/01 12:07:57;;;;;;;;;;;6.20;99.90;;;;;;5095947;28;19919;-70
2020/12/01 12:10:23;;;;;;;;;;;6.30;99.90;;;;;;5096133;28;19934;-69
2020/12/01 12:12:49;;;;;;;;;;;6.40;99.90;;;;;;5095534;28;19961;-70
2020/12/01 12:15:15;;;;;;;;;;;6.30;99.90;;;;;;5095691;28;19904;-72
2020/12/01 12:17:41;;;;;;;;;;;6.30;99.90;;;;;;5094955;28;19916;-72
2020/12/01 12:20:06;;;;;;;;;;;6.30;99.90;;;;;;5095937;28;19930;-69
2020/12/01 12:22:32;;;;;;;;;;;6.30;99.90;;;;;;5095275;28;19996;-68
2020/12/01 12:24:57;;;;;;;;;;;6.10;99.90;;;;;;5077016;28;19926;-71
2020/12/01 12:27:23;;;;;;;;;;;5.90;99.90;;;;;;5095436;28;20364;-73
2020/12/01 12:29:48;;;;;;;;;;;5.90;99.90;;;;;;5095857;28;19911;-69
2020/12/01 12:32:14;;;;;;;;;;;5.70;99.90;;;;;;5094953;28;19948;-69
2020/12/01 12:34:40;;;;;;;;;;;5.70;99.90;;;;;;5094392;28;19910;-70
2020/12/01 12:37:05;;;;;;;;;;;5.70;99.90;;;;;;5076672;28;19908;-73
2020/12/01 12:39:31;;;;;;;;;;;5.60;99.90;;;;;;5102477;28;19943;-69
2020/12/01 12:41:56;;;;;;;;;;;5.70;99.90;;;;;;5095154;28;19911;-74
2020/12/01 12:44:22;;;;;;;;;;;5.70;99.90;;;;;;5095351;28;20320;-75
2020/12/01 12:46:47;;;;;;;;;;;5.70;99.90;;;;;;5096419;28;19958;-71
2020/12/01 12:49:13;;;;;;;;;;;5.30;99.90;;;;;;5092976;28;20306;-69
2020/12/01 12:51:39;;;;;;;;;;;5.80;99.90;;;;;;5095768;28;19908;-71
2020/12/01 12:54:04;;;;;;;;;;;5.80;99.90;;;;;;5095233;28;19908;-70
2020/12/01 12:56:30;;;;;;;;;;;5.80;99.90;;;;;;5095212;28;19904;-70
2020/12/01 12:58:57;;;;;;;;;;;;;;;;;;5094731;28;20373;-73
2020/12/01 13:01:22;;;;;;;;;;;5.60;99.90;;;;;;5088528;28;19911;-71
2020/12/01 13:03:48;;;;;;;;;;;5.80;99.90;;;;;;5095404;28;20247;-69
2020/12/01 13:06:14;;;;;;;;;;;5.90;99.90;;;;;;5096888;28;19922;-68
2020/12/01 13:08:40;;;;;;;;;;;5.90;99.90;;;;;;5093987;28;19904;-69
2020/12/01 13:11:05;;;;;;;;;;;5.90;99.90;;;;;;5094429;28;19911;-68
2020/12/01 13:13:31;;;;;;;;;;;5.90;99.90;;;;;;5094877;28;20029;-73
2020/12/01 13:15:56;;;;;;;;;;;5.80;99.90;;;;;;5094924;28;19955;-69
2020/12/01 13:18:23;;;;;;;;;;;5.80;99.90;;;;;;5094600;28;19912;-72
2020/12/01 13:20:49;;;;;;;;;;;5.70;99.90;;;;;;5075953;28;19907;-69
2020/12/01 13:23:14;;;;;;;;;;;5.60;99.90;;;;;;5076197;28;20343;-70
2020/12/01 13:25:40;;;;;;;;;;;5.70;99.90;;;;;;5094512;28;19908;-68
2020/12/01 13:28:05;;;;;;;;;;;5.60;99.90;;;;;;5093668;28;20323;-69
2020/12/01 13:30:31;;;;;;;;;;;5.60;99.90;;;;;;5110098;28;19911;-69
2020/12/01 13:32:57;;;;;;;;;;;5.50;99.90;;;;;;5094235;28;19991;-70
2020/12/01 13:35:23;;;;;;;;;;;5.50;99.90;;;;;;5093980;28;19911;-71
2020/12/01 13:37:49;;;;;;;;;;;5.50;99.90;;;;;;5094098;28;19978;-73
2020/12/01 13:40:16;;;;;;;;;;;5.40;99.90;;;;;;5094262;28;19931;-72
2020/12/01 13:42:42;;;;;;;;;;;5.30;99.90;;;;;;5093630;28;20002;-69
2020/12/01 13:45:08;;;;;;;;;;;5.30;99.90;;;;;;5076166;28;20313;-70
2020/12/01 13:47:34;;;;;;;;;;;5.20;99.90;;;;;;5094073;28;19993;-72
2020/12/01 13:50:00;;;;;;;;;;;5.20;99.90;;;;;;5093318;28;19987;-70
2020/12/01 13:52:26;;;;;;;;;;;5.10;99.90;;;;;;5075860;28;20278;-70
2020/12/01 13:54:52;;;;;;;;;;;5.00;99.90;;;;;;5093257;28;19965;-71
2020/12/01 13:57:17;;;;;;;;;;;5.00;99.90;;;;;;5084165;28;20285;-74
2020/12/01 13:59:43;;;;;;;;;;;4.90;99.90;;;;;;5093372;28;19908;-72
2020/12/01 14:02:09;;;;;;;;;;;5.00;99.90;;;;;;5092996;28;19984;-72
2020/12/01 14:04:34;;;;;;;;;;;4.90;99.90;;;;;;5092833;28;20334;-72
2020/12/01 14:07:00;;;;;;;;;;;4.70;99.90;;;;;;5104436;28;19923;-70
2020/12/01 14:09:25;;;;;;;;;;;4.70;99.90;;;;;;5092926;28;20370;-72
2020/12/01 14:11:52;;;;;;;;;;;4.40;99.90;;;;;;5092794;28;19908;-69
2020/12/01 14:14:18;;;;;;;;;;;4.50;99.90;;;;;;5088995;28;19904;-70
2020/12/01 14:16:43;;;;;;;;;;;4.50;99.90;;;;;;5093159;28;19904;-74
2020/12/01 14:19:09;;;;;;;;;;;4.50;99.90;;;;;;5092222;28;19912;-75
2020/12/01 14:21:35;;;;;;;;;;;4.50;99.90;;;;;;5093266;28;19989;-70
2020/12/01 14:24:01;;;;;;;;;;;4.40;99.90;;;;;;5092745;28;20046;-73
2020/12/01 14:26:26;;;;;;;;;;;4.40;99.90;;;;;;5108705;28;19911;-70
2020/12/01 14:28:53;;;;;;;;;;;4.40;99.90;;;;;;5090498;28;20318;-72
2020/12/01 14:31:20;;;;;;;;;;;4.30;99.90;;;;;;5090786;28;19917;-69
2020/12/01 14:33:45;;;;;;;;;;;4.20;99.90;;;;;;5087103;28;19967;-71
2020/12/01 14:36:11;;;;;;;;;;;4.10;99.90;;;;;;5089103;28;19904;-70
2020/12/01 14:38:37;;;;;;;;;;;4.00;99.90;;;;;;5092093;28;19908;-75